Time;durP1;ratioP1;P1;durP2;ratioP2;P2;SDS_P1;SDS_P2;PMS_P1;PMS_P2;Temp;Humidity;BMP_temperature;BMP_pressure;BME280_temperature;BME280_humidity;BME280_pressure;Samples;Min_cycle;Max_cycle;Signal;HPM_P1;HPM_P2
2023/01/10 00:02:06;;;;;;;18.60;3.97;;;;;;;;;;4962937;28;20174;-79
2023/01/10 00:04:32;;;;;;;20.20;3.97;;;;;;;;;;4962910;28;20178;-81
2023/01/10 00:06:58;;;;;;;20.70;4.70;;;;;;;;;;4965343;28;20264;-80
2023/01/10 00:09:25;;;;;;;13.80;4.57;;;;;;;;;;4977541;28;20186;-80
2023/01/10 00:14:35;;;;;;;17.30;4.53;;;;;;;;;;4985351;28;20259;-78
2023/01/10 00:17:02;;;;;;;16.93;4.50;;;;;;;;;;4978315;28;20277;-78
2023/01/10 00:19:28;;;;;;;16.40;4.37;;;;;;;;;;4975737;28;20220;-78
2023/01/10 00:22:01;;;;;;;17.47;4.03;;;;;;;;;;4995862;28;20205;-78
2023/01/10 00:24:27;;;;;;;16.97;3.83;;;;;;;;;;4986039;28;20182;-78
2023/01/10 00:26:53;;;;;;;18.53;4.27;;;;;;;;;;4996078;28;20248;-78
2023/01/10 00:29:20;;;;;;;14.80;4.50;;;;;;;;;;4990118;28;20204;-78
2023/01/10 00:31:47;;;;;;;15.30;3.90;;;;;;;;;;4981363;28;20253;-78
2023/01/10 00:34:13;;;;;;;16.87;4.23;;;;;;;;;;4970118;28;20200;-78
2023/01/10 00:36:39;;;;;;;14.13;4.63;;;;;;;;;;4977599;28;20194;-78
2023/01/10 00:39:05;;;;;;;15.57;4.50;;;;;;;;;;4984741;28;20189;-78
2023/01/10 00:44:16;;;;;;;18.77;4.47;;;;;;;;;;4998797;28;20212;-83
2023/01/10 00:46:42;;;;;;;16.27;4.77;;;;;;;;;;4969792;28;20186;-83
2023/01/10 00:49:10;;;;;;;16.47;4.30;;;;;;;;;;4979809;28;20268;-83
2023/01/10 00:51:36;;;;;;;25.20;5.30;;;;;;;;;;4982643;28;20616;-83
2023/01/10 00:54:02;;;;;;;13.83;4.60;;;;;;;;;;4968973;28;20418;-83
2023/01/10 00:56:28;;;;;;;21.80;6.30;;;;;;;;;;4981150;28;20182;-83
2023/01/10 00:58:54;;;;;;;20.80;5.80;;;;;;;;;;4987002;28;20184;-84
2023/01/10 01:01:21;;;;;;;20.27;4.90;;;;;;;;;;4972016;28;20201;-81
2023/01/10 01:03:47;;;;;;;17.10;5.40;;;;;;;;;;4987900;28;20177;-81
2023/01/10 01:06:13;;;;;;;16.60;4.80;;;;;;;;;;4972227;28;20217;-78
2023/01/10 01:08:39;;;;;;;13.17;3.90;;;;;;;;;;4972253;28;20204;-78
2023/01/10 01:11:05;;;;;;;21.70;4.67;;;;;;;;;;4988924;28;20181;-79
2023/01/10 01:13:31;;;;;;;18.17;4.83;;;;;;;;;;4986985;28;20192;-78
2023/01/10 01:15:58;;;;;;;14.87;4.53;;;;;;;;;;4970869;28;20201;-78
2023/01/10 01:18:24;;;;;;;16.77;5.00;;;;;;;;;;4985807;28;20205;-79
2023/01/10 01:20:55;;;;;;;19.57;4.87;;;;;;;;;;4970287;28;20193;-79
2023/01/10 01:23:21;;;;;;;18.53;5.67;;;;;;;;;;4985548;28;20185;-79
2023/01/10 01:25:57;;;;;;;15.77;4.73;;;;;;;;;;4974599;28;20193;-79
2023/01/10 01:28:25;;;;;;;25.83;5.47;;;;;;;;;;4985596;28;20182;-79
2023/01/10 01:30:51;;;;;;;17.20;4.17;;;;;;;;;;4988006;28;20188;-79
2023/01/10 01:33:17;;;;;;;21.47;4.77;;;;;;;;;;4993804;28;20280;-79
2023/01/10 01:35:44;;;;;;;18.20;4.93;;;;;;;;;;4976253;28;20182;-79
2023/01/10 01:38:14;;;;;;;19.67;5.10;;;;;;;;;;4978515;28;20205;-78
2023/01/10 01:40:40;;;;;;;18.00;5.73;;;;;;;;;;4991814;28;20174;-78
2023/01/10 01:43:26;;;;;;;23.47;5.00;;;;;;;;;;4992330;28;20228;-78
2023/01/10 01:45:52;;;;;;;20.20;5.13;;;;;;;;;;4994048;28;20178;-78
2023/01/10 01:48:22;;;;;;;27.70;5.80;;;;;;;;;;4994056;28;20193;-78
2023/01/10 01:50:48;;;;;;;14.67;4.93;;;;;;;;;;4992317;28;20186;-79
2023/01/10 01:53:21;;;;;;;19.27;5.03;;;;;;;;;;4993426;28;20214;-79
2023/01/10 01:55:48;;;;;;;20.67;5.87;;;;;;;;;;4991573;28;20177;-78
2023/01/10 01:58:17;;;;;;;23.07;4.97;;;;;;;;;;4992958;28;20209;-79
2023/01/10 02:00:44;;;;;;;15.33;4.67;;;;;;;;;;4989472;28;20208;-79
2023/01/10 02:03:10;;;;;;;23.13;4.93;;;;;;;;;;4993012;28;20188;-79
2023/01/10 02:05:37;;;;;;;23.13;5.43;;;;;;;;;;4978255;28;20177;-78
2023/01/10 02:08:03;;;;;;;23.60;5.93;;;;;;;;;;4991631;28;20221;-84
2023/01/10 02:10:48;;;;;;;22.27;4.90;;;;;;;;;;4991594;28;20189;-84
2023/01/10 02:13:15;;;;;;;18.80;5.57;;;;;;;;;;4994544;28;20280;-84
2023/01/10 02:15:41;;;;;;;21.10;5.57;;;;;;;;;;5011633;28;20185;-84
2023/01/10 02:18:07;;;;;;;16.53;4.60;;;;;;;;;;4979390;28;20216;-84
2023/01/10 02:20:43;;;;;;;20.43;5.53;;;;;;;;;;4977213;28;20193;-84
2023/01/10 02:23:30;;;;;;;24.27;5.63;;;;;;;;;;4994349;28;20181;-81
2023/01/10 02:26:07;;;;;;;16.40;4.53;;;;;;;;;;4973295;28;20189;-81
2023/01/10 02:28:33;;;;;;;17.50;5.00;;;;;;;;;;5008892;28;20192;-81
2023/01/10 02:31:02;;;;;;;16.77;4.40;;;;;;;;;;4993271;28;20205;-81
2023/01/10 02:33:31;;;;;;;15.73;3.93;;;;;;;;;;4991790;28;20178;-81
2023/01/10 02:36:06;;;;;;;15.90;4.00;;;;;;;;;;4988882;28;20277;-81
2023/01/10 02:38:32;;;;;;;19.33;4.03;;;;;;;;;;4996659;28;20212;-81
2023/01/10 02:41:17;;;;;;;15.60;4.00;;;;;;;;;;5014446;28;20193;-78
2023/01/10 02:44:04;;;;;;;17.50;4.47;;;;;;;;;;4986117;28;20186;-79
2023/01/10 02:46:31;;;;;;;20.67;4.43;;;;;;;;;;4989651;28;20186;-83
2023/01/10 02:48:57;;;;;;;18.40;4.70;;;;;;;;;;4989282;28;20216;-84
2023/01/10 02:51:26;;;;;;;21.27;4.97;;;;;;;;;;4988938;28;20292;-79
2023/01/10 02:54:02;;;;;;;19.23;4.97;;;;;;;;;;4988540;28;20194;-79
2023/01/10 02:56:47;;;;;;;20.90;4.80;;;;;;;;;;4989657;28;20185;-80
2023/01/10 02:59:31;;;;;;;20.50;4.83;;;;;;;;;;4985138;28;20190;-80
2023/01/10 03:02:04;;;;;;;20.73;4.97;;;;;;;;;;4991193;28;20188;-81
2023/01/10 03:04:29;;;;;;;27.27;4.93;;;;;;;;;;4982454;28;20186;-81
2023/01/10 03:06:58;;;;;;;21.10;5.10;;;;;;;;;;4998508;28;20221;-80
2023/01/10 03:09:31;;;;;;;17.43;4.00;;;;;;;;;;4980947;28;20243;-80
2023/01/10 03:12:02;;;;;;;16.63;4.43;;;;;;;;;;4994114;28;20185;-81
2023/01/10 03:14:28;;;;;;;24.63;5.10;;;;;;;;;;4979710;28;20189;-78
2023/01/10 03:16:58;;;;;;;17.50;4.80;;;;;;;;;;4979625;28;20213;-78
2023/01/10 03:19:26;;;;;;;19.63;4.47;;;;;;;;;;4982857;28;20257;-78
2023/01/10 03:21:55;;;;;;;14.23;4.07;;;;;;;;;;4994977;28;20192;-84
2023/01/10 03:24:28;;;;;;;20.47;4.43;;;;;;;;;;4996367;28;20274;-84
2023/01/10 03:26:58;;;;;;;28.40;4.67;;;;;;;;;;4994791;28;20241;-83
2023/01/10 03:29:39;;;;;;;20.00;3.80;;;;;;;;;;4985968;28;20177;-84
2023/01/10 03:32:07;;;;;;;15.53;4.07;;;;;;;;;;4982566;28;20236;-81
2023/01/10 03:34:33;;;;;;;22.57;3.93;;;;;;;;;;4979460;28;20186;-80
2023/01/10 03:37:09;;;;;;;19.67;4.80;;;;;;;;;;4963235;28;20264;-81
2023/01/10 03:39:44;;;;;;;20.77;4.50;;;;;;;;;;4996699;28;20208;-84
2023/01/10 03:44:42;;;;;;;15.53;4.17;;;;;;;;;;4996558;28;20235;-84
2023/01/10 03:45:16;;;;;;;17.73;5.20;;;;;;;;;;4996295;28;20201;-84
2023/01/10 03:47:46;;;;;;;20.27;5.23;;;;;;;;;;4979134;28;20193;-84
2023/01/10 03:50:14;;;;;;;24.60;6.37;;;;;;;;;;4989354;28;20189;-84
2023/01/10 03:52:41;;;;;;;29.03;5.43;;;;;;;;;;4979140;28;20186;-84
2023/01/10 03:55:09;;;;;;;18.70;5.60;;;;;;;;;;4978844;28;20182;-84
2023/01/10 03:57:35;;;;;;;22.37;5.10;;;;;;;;;;4978813;28;20206;-83
2023/01/10 04:00:02;;;;;;;23.67;6.13;;;;;;;;;;4962741;28;20189;-84
2023/01/10 04:02:30;;;;;;;27.73;6.33;;;;;;;;;;4996780;28;20212;-83
2023/01/10 04:04:56;;;;;;;20.67;5.47;;;;;;;;;;4998295;28;20189;-78
2023/01/10 04:07:22;;;;;;;19.80;5.30;;;;;;;;;;4998433;28;20225;-78
2023/01/10 04:09:48;;;;;;;20.60;6.30;;;;;;;;;;4997989;28;20231;-78
2023/01/10 04:12:14;;;;;;;28.50;6.23;;;;;;;;;;4978682;28;20186;-79
2023/01/10 04:14:40;;;;;;;27.30;6.33;;;;;;;;;;4978794;28;20233;-79
2023/01/10 04:17:07;;;;;;;23.97;6.10;;;;;;;;;;4978803;28;20210;-78
2023/01/10 04:19:33;;;;;;;21.93;6.40;;;;;;;;;;4981655;28;20251;-79
2023/01/10 04:21:59;;;;;;;22.83;6.60;;;;;;;;;;4981375;28;20178;-79
2023/01/10 04:24:25;;;;;;;27.57;5.70;;;;;;;;;;4962337;28;20182;-79
2023/01/10 04:26:51;;;;;;;26.27;6.67;;;;;;;;;;4965457;28;20224;-79
2023/01/10 04:29:17;;;;;;;21.70;6.47;;;;;;;;;;4990947;28;20190;-79
2023/01/10 04:31:43;;;;;;;28.20;6.27;;;;;;;;;;4964513;28;20185;-79
2023/01/10 04:34:09;;;;;;;18.93;6.73;;;;;;;;;;4997966;28;20207;-79
2023/01/10 04:36:35;;;;;;;21.07;6.93;;;;;;;;;;4979896;28;20243;-81
2023/01/10 04:39:01;;;;;;;23.00;6.93;;;;;;;;;;4982923;28;20228;-80
2023/01/10 04:41:27;;;;;;;21.90;6.87;;;;;;;;;;4977005;28;20344;-79
2023/01/10 04:43:53;;;;;;;23.97;6.37;;;;;;;;;;4997762;28;20192;-79
2023/01/10 04:46:19;;;;;;;25.57;7.33;;;;;;;;;;4984824;28;20186;-79
2023/01/10 04:48:45;;;;;;;25.37;8.03;;;;;;;;;;4981338;28;20200;-79
2023/01/10 04:51:11;;;;;;;29.07;7.20;;;;;;;;;;5001854;28;20186;-79
2023/01/10 04:53:38;;;;;;;21.67;6.83;;;;;;;;;;4996054;28;20174;-79
2023/01/10 04:56:08;;;;;;;26.30;7.47;;;;;;;;;;4995832;28;20181;-78
2023/01/10 04:58:35;;;;;;;27.37;7.63;;;;;;;;;;4988962;28;20210;-78
2023/01/10 05:01:11;;;;;;;26.70;7.13;;;;;;;;;;4977554;28;20236;-79
2023/01/10 05:03:37;;;;;;;29.03;7.43;;;;;;;;;;4977669;28;20205;-79
2023/01/10 05:06:04;;;;;;;23.47;7.20;;;;;;;;;;4975859;28;20222;-78
2023/01/10 05:08:30;;;;;;;22.47;7.13;;;;;;;;;;4961984;28;20237;-79
2023/01/10 05:10:56;;;;;;;24.73;6.63;;;;;;;;;;5005275;28;20235;-84
2023/01/10 05:13:22;;;;;;;28.57;6.90;;;;;;;;;;4987614;28;20190;-84
2023/01/10 05:15:48;;;;;;;24.97;7.50;;;;;;;;;;4977216;28;20224;-84
2023/01/10 05:18:14;;;;;;;25.00;6.77;;;;;;;;;;4981298;28;20248;-84
2023/01/10 05:20:40;;;;;;;25.17;7.17;;;;;;;;;;4995660;28;20192;-85
2023/01/10 05:23:06;;;;;;;24.93;7.07;;;;;;;;;;4981223;28;20185;-84
2023/01/10 05:25:32;;;;;;;25.63;6.17;;;;;;;;;;4980732;28;20195;-84
2023/01/10 05:27:58;;;;;;;23.43;6.20;;;;;;;;;;4980937;28;20181;-84
2023/01/10 05:30:24;;;;;;;26.33;6.67;;;;;;;;;;4980120;28;20185;-84
2023/01/10 05:32:50;;;;;;;33.07;7.37;;;;;;;;;;4977310;28;20205;-84
2023/01/10 05:35:16;;;;;;;23.63;6.13;;;;;;;;;;4979058;28;20196;-84
2023/01/10 05:37:42;;;;;;;27.10;6.73;;;;;;;;;;4976953;28;20312;-84
2023/01/10 05:40:08;;;;;;;23.23;6.27;;;;;;;;;;4978235;28;20233;-84
2023/01/10 05:42:35;;;;;;;30.70;6.67;;;;;;;;;;4985904;28;20186;-83
2023/01/10 05:45:01;;;;;;;25.87;6.77;;;;;;;;;;4978775;28;20185;-79
2023/01/10 05:47:27;;;;;;;24.57;6.97;;;;;;;;;;4988161;28;20182;-78
2023/01/10 05:49:56;;;;;;;22.77;6.23;;;;;;;;;;4974115;28;20276;-78
2023/01/10 05:52:22;;;;;;;24.50;6.90;;;;;;;;;;4970703;28;20209;-78
2023/01/10 05:54:48;;;;;;;27.50;6.13;;;;;;;;;;4972040;28;20200;-78
2023/01/10 05:57:14;;;;;;;23.83;5.50;;;;;;;;;;4972022;28;20255;-78
2023/01/10 05:59:40;;;;;;;25.73;6.33;;;;;;;;;;4970261;28;20190;-78
2023/01/10 06:02:06;;;;;;;28.67;6.20;;;;;;;;;;4986308;28;20192;-78
2023/01/10 06:04:32;;;;;;;29.07;6.50;;;;;;;;;;4985823;28;20192;-78
2023/01/10 06:06:58;;;;;;;27.17;6.20;;;;;;;;;;4971609;28;20230;-78
2023/01/10 06:09:24;;;;;;;22.60;5.53;;;;;;;;;;4971809;28;20217;-78
2023/01/10 06:11:52;;;;;;;28.53;6.57;;;;;;;;;;4972140;28;20182;-78
2023/01/10 06:14:18;;;;;;;27.73;6.20;;;;;;;;;;4971108;28;20193;-78
2023/01/10 06:16:45;;;;;;;23.97;6.10;;;;;;;;;;4987023;28;20189;-80
2023/01/10 06:19:17;;;;;;;22.87;6.43;;;;;;;;;;4990142;28;20266;-80
2023/01/10 06:21:46;;;;;;;30.50;6.93;;;;;;;;;;4971016;28;20178;-80
2023/01/10 06:24:12;;;;;;;24.33;6.03;;;;;;;;;;4975330;28;20188;-78
2023/01/10 06:26:38;;;;;;;25.27;5.70;;;;;;;;;;4973116;28;20173;-78
2023/01/10 06:29:07;;;;;;;21.73;6.40;;;;;;;;;;4989590;28;20185;-78
2023/01/10 06:31:33;;;;;;;24.47;6.80;;;;;;;;;;4985612;28;20194;-77
2023/01/10 06:33:59;;;;;;;24.17;6.53;;;;;;;;;;4978851;28;20196;-77
2023/01/10 06:36:25;;;;;;;25.33;6.40;;;;;;;;;;4976071;28;20200;-77
2023/01/10 06:38:51;;;;;;;24.57;6.63;;;;;;;;;;5017379;28;20295;-78
2023/01/10 06:41:17;;;;;;;27.23;6.50;;;;;;;;;;4979773;28;20182;-78
2023/01/10 06:43:45;;;;;;;20.67;6.13;;;;;;;;;;4982612;28;20181;-78
2023/01/10 06:46:12;;;;;;;29.77;6.53;;;;;;;;;;5017051;28;20233;-78
2023/01/10 06:48:38;;;;;;;31.43;7.13;;;;;;;;;;4999563;28;20192;-78
2023/01/10 06:51:05;;;;;;;26.00;6.57;;;;;;;;;;4999716;28;20207;-83
2023/01/10 06:53:31;;;;;;;27.13;6.77;;;;;;;;;;4999373;28;20181;-83
2023/01/10 06:55:57;;;;;;;25.30;5.97;;;;;;;;;;4983579;28;20196;-80
2023/01/10 06:58:23;;;;;;;30.83;7.10;;;;;;;;;;4978598;28;20208;-80
2023/01/10 07:00:50;;;;;;;30.90;7.00;;;;;;;;;;5013966;28;20227;-80
2023/01/10 07:03:16;;;;;;;30.97;6.90;;;;;;;;;;4996011;28;20180;-80
2023/01/10 07:05:42;;;;;;;26.57;6.37;;;;;;;;;;5011880;28;20185;-80
2023/01/10 07:08:08;;;;;;;38.23;7.07;;;;;;;;;;4996096;28;20238;-80
2023/01/10 07:10:34;;;;;;;27.50;6.83;;;;;;;;;;5014203;28;20195;-80
2023/01/10 07:13:00;;;;;;;26.90;6.50;;;;;;;;;;4982697;28;20190;-80
2023/01/10 07:15:27;;;;;;;27.37;6.93;;;;;;;;;;4981710;28;20276;-81
2023/01/10 07:17:53;;;;;;;24.13;6.17;;;;;;;;;;4996138;28;20213;-80
2023/01/10 07:20:19;;;;;;;25.83;6.57;;;;;;;;;;4991174;28;20185;-80
2023/01/10 07:22:52;;;;;;;33.53;7.00;;;;;;;;;;4988922;28;20178;-80
2023/01/10 07:25:18;;;;;;;27.97;6.93;;;;;;;;;;4993004;28;20203;-78
2023/01/10 07:27:44;;;;;;;33.57;7.47;;;;;;;;;;4992700;28;20182;-78
2023/01/10 07:30:10;;;;;;;25.20;6.77;;;;;;;;;;4983203;28;20200;-79
2023/01/10 07:32:36;;;;;;;23.10;6.10;;;;;;;;;;4982231;28;20177;-78
2023/01/10 07:35:02;;;;;;;34.03;6.67;;;;;;;;;;4981401;28;20194;-79
2023/01/10 07:37:28;;;;;;;27.80;6.33;;;;;;;;;;4998663;28;20220;-78
2023/01/10 07:39:55;;;;;;;27.43;5.70;;;;;;;;;;4982938;28;20181;-78
2023/01/10 07:42:21;;;;;;;27.60;7.00;;;;;;;;;;4983720;28;20189;-78
2023/01/10 07:44:47;;;;;;;34.80;6.90;;;;;;;;;;4982892;28;20195;-79
2023/01/10 07:47:13;;;;;;;21.07;6.37;;;;;;;;;;4979410;28;20201;-78
2023/01/10 07:49:39;;;;;;;25.67;6.50;;;;;;;;;;4979839;28;20182;-78
2023/01/10 07:52:07;;;;;;;29.60;6.80;;;;;;;;;;4985626;28;20201;-78
2023/01/10 07:54:34;;;;;;;28.37;6.10;;;;;;;;;;4979149;28;20363;-78
2023/01/10 07:57:00;;;;;;;28.27;7.20;;;;;;;;;;4979621;28;20186;-78
2023/01/10 07:59:26;;;;;;;27.83;6.40;;;;;;;;;;4963695;28;20198;-78
2023/01/10 08:01:52;;;;;;;25.20;5.40;;;;;;;;;;4983007;28;20202;-78
2023/01/10 08:04:19;;;;;;;35.93;6.57;;;;;;;;;;4978785;28;20190;-78
2023/01/10 08:06:45;;;;;;;22.33;5.60;;;;;;;;;;5012703;28;20229;-78
2023/01/10 08:09:11;;;;;;;24.03;6.07;;;;;;;;;;4982721;28;20235;-78
2023/01/10 08:11:37;;;;;;;26.97;6.23;;;;;;;;;;4981936;28;20188;-78
2023/01/10 08:14:03;;;;;;;29.10;5.97;;;;;;;;;;4982071;28;20189;-80
2023/01/10 08:16:29;;;;;;;26.13;5.73;;;;;;;;;;4981930;28;20182;-81
2023/01/10 08:18:55;;;;;;;23.73;5.90;;;;;;;;;;4969664;28;20222;-80
2023/01/10 08:21:21;;;;;;;26.77;6.13;;;;;;;;;;4969096;23;20248;-81
2023/01/10 08:23:47;;;;;;;26.33;6.57;;;;;;;;;;4958804;28;20222;-79
2023/01/10 08:26:13;;;;;;;30.77;6.57;;;;;;;;;;4950205;28;20202;-80
2023/01/10 08:28:39;;;;;;;24.07;6.57;;;;;;;;;;4958904;28;20186;-80
2023/01/10 08:31:08;;;;;;;28.00;6.27;;;;;;;;;;4960887;28;20277;-78
2023/01/10 08:33:36;;;;;;;30.80;5.97;;;;;;;;;;4966270;28;20178;-78
2023/01/10 08:36:02;;;;;;;24.33;5.87;;;;;;;;;;4966610;28;20206;-80
2023/01/10 08:38:28;;;;;;;24.47;6.43;;;;;;;;;;4974112;28;20214;-78
2023/01/10 08:40:57;;;;;;;24.13;5.90;;;;;;;;;;4959896;28;20194;-79
2023/01/10 08:43:23;;;;;;;22.57;5.37;;;;;;;;;;4962219;28;20182;-78
2023/01/10 08:45:50;;;;;;;29.70;6.07;;;;;;;;;;4977795;28;20190;-78
2023/01/10 08:48:16;;;;;;;24.33;5.10;;;;;;;;;;4959867;28;20187;-77
2023/01/10 08:50:42;;;;;;;28.67;5.70;;;;;;;;;;4960085;28;20194;-80
2023/01/10 08:53:09;;;;;;;28.73;6.07;;;;;;;;;;4964637;28;20328;-79
2023/01/10 08:55:37;;;;;;;24.93;5.47;;;;;;;;;;4950095;28;20187;-78
2023/01/10 08:58:03;;;;;;;28.00;5.70;;;;;;;;;;4991507;28;20276;-78
2023/01/10 09:00:29;;;;;;;22.53;5.20;;;;;;;;;;4975560;28;20206;-79
2023/01/10 09:02:55;;;;;;;24.93;5.60;;;;;;;;;;4953937;28;20198;-78
2023/01/10 09:05:21;;;;;;;29.83;5.20;;;;;;;;;;4991473;28;20190;-78
2023/01/10 09:07:47;;;;;;;22.87;5.47;;;;;;;;;;4958981;28;20189;-78
2023/01/10 09:10:13;;;;;;;25.53;6.20;;;;;;;;;;4957640;28;20228;-78
2023/01/10 09:12:54;;;;;;;27.27;5.57;;;;;;;;;;4958501;28;20199;-79
2023/01/10 09:15:24;;;;;;;24.20;6.07;;;;;;;;;;4968919;28;20244;-78
2023/01/10 09:17:58;;;;;;;22.10;5.37;;;;;;;;;;4958443;28;20209;-78
2023/01/10 09:20:24;;;;;;;25.63;5.73;;;;;;;;;;4971988;28;20240;-81
2023/01/10 09:22:50;;;;;;;22.27;5.83;;;;;;;;;;4980426;28;20216;-80
2023/01/10 09:25:17;;;;;;;23.80;5.63;;;;;;;;;;4971035;28;20216;-80
2023/01/10 09:27:43;;;;;;;28.53;6.10;;;;;;;;;;4958050;28;20186;-80
2023/01/10 09:30:09;;;;;;;24.63;5.93;;;;;;;;;;4955871;28;20190;-80
2023/01/10 09:32:35;;;;;;;20.90;5.40;;;;;;;;;;4973928;28;20433;-80
2023/01/10 09:35:01;;;;;;;25.33;5.93;;;;;;;;;;4976833;28;20304;-80
2023/01/10 09:37:27;;;;;;;26.20;6.23;;;;;;;;;;4994289;28;20261;-80
2023/01/10 09:39:53;;;;;;;24.43;5.57;;;;;;;;;;4959840;28;20239;-81
2023/01/10 09:42:43;;;;;;;20.60;5.30;;;;;;;;;;4960465;28;20236;-82
2023/01/10 09:45:25;;;;;;;26.10;6.07;;;;;;;;;;4967117;28;20234;-81
2023/01/10 09:47:53;;;;;;;27.37;6.30;;;;;;;;;;4965432;28;20177;-81
2023/01/10 09:50:37;;;;;;;23.97;5.80;;;;;;;;;;4966218;28;20274;-80
2023/01/10 09:53:09;;;;;;;23.07;6.10;;;;;;;;;;4980356;28;20194;-79
2023/01/10 09:55:36;;;;;;;25.13;5.13;;;;;;;;;;4962815;28;20222;-78
2023/01/10 09:58:15;;;;;;;26.83;5.63;;;;;;;;;;4975154;28;20217;-79
2023/01/10 10:00:44;;;;;;;27.63;5.97;;;;;;;;;;4962930;28;20183;-79
2023/01/10 10:03:18;;;;;;;28.83;5.97;;;;;;;;;;4978923;28;20183;-79
2023/01/10 10:05:44;;;;;;;25.97;5.43;;;;;;;;;;4965592;28;20237;-79
2023/01/10 10:08:15;;;;;;;28.43;6.97;;;;;;;;;;4977446;28;20201;-79
2023/01/10 10:10:48;;;;;;;23.57;6.23;;;;;;;;;;4994083;28;20219;-77
2023/01/10 10:13:40;;;;;;;27.90;6.97;;;;;;;;;;4979086;28;20198;-78
2023/01/10 10:16:23;;;;;;;27.33;5.63;;;;;;;;;;4975966;28;20179;-79
2023/01/10 10:19:14;;;;;;;25.30;5.93;;;;;;;;;;4981042;28;20206;-78
2023/01/10 10:21:43;;;;;;;32.30;6.90;;;;;;;;;;4962598;28;20278;-79
2023/01/10 10:24:21;;;;;;;23.10;5.37;;;;;;;;;;4969425;28;20244;-78
2023/01/10 10:26:58;;;;;;;27.73;5.93;;;;;;;;;;4978674;28;20189;-82
2023/01/10 10:29:43;;;;;;;26.80;6.23;;;;;;;;;;4984889;28;20201;-83
2023/01/10 10:32:15;;;;;;;22.93;6.10;;;;;;;;;;4965696;28;20269;-82
2023/01/10 10:34:45;;;;;;;21.87;5.67;;;;;;;;;;4966790;28;20186;-83
2023/01/10 10:37:34;;;;;;;28.37;6.00;;;;;;;;;;4961180;28;20232;-82
2023/01/10 10:40:02;;;;;;;21.83;5.60;;;;;;;;;;4961189;28;20229;-83
2023/01/10 10:42:29;;;;;;;21.80;6.07;;;;;;;;;;4961025;28;20202;-83
2023/01/10 10:45:07;;;;;;;28.07;6.07;;;;;;;;;;4963472;28;20237;-80
2023/01/10 10:47:36;;;;;;;24.20;5.57;;;;;;;;;;4994666;28;20236;-81
2023/01/10 10:50:14;;;;;;;25.50;5.90;;;;;;;;;;4993166;28;20269;-80
2023/01/10 10:52:41;;;;;;;26.37;6.27;;;;;;;;;;4975940;28;20182;-79
2023/01/10 10:55:12;;;;;;;31.73;5.73;;;;;;;;;;4986293;28;20187;-78
2023/01/10 10:57:39;;;;;;;25.07;5.70;;;;;;;;;;4976925;28;20214;-79
2023/01/10 11:00:07;;;;;;;20.17;5.23;;;;;;;;;;4977901;28;20186;-78
2023/01/10 11:02:41;;;;;;;23.90;5.13;;;;;;;;;;4980929;28;20179;-78
2023/01/10 11:05:14;;;;;;;21.30;4.97;;;;;;;;;;4975916;28;20183;-78
2023/01/10 11:07:40;;;;;;;23.80;5.07;;;;;;;;;;4961075;28;20187;-78
2023/01/10 11:12:44;;;;;;;27.70;5.90;;;;;;;;;;4980167;28;20245;-79
2023/01/10 11:15:10;;;;;;;15.33;4.93;;;;;;;;;;4961205;28;20186;-78
2023/01/10 11:17:39;;;;;;;25.07;5.40;;;;;;;;;;4959350;28;20237;-81
2023/01/10 11:20:16;;;;;;;26.43;5.37;;;;;;;;;;4960618;28;20230;-80
2023/01/10 11:22:47;;;;;;;24.60;5.70;;;;;;;;;;4961333;28;20181;-79
2023/01/10 11:25:14;;;;;;;25.00;5.40;;;;;;;;;;4962946;28;20186;-80
2023/01/10 11:27:50;;;;;;;27.67;5.63;;;;;;;;;;4978160;28;20214;-80
2023/01/10 11:30:23;;;;;;;25.17;5.80;;;;;;;;;;4968303;28;20194;-80
2023/01/10 11:32:51;;;;;;;20.13;4.97;;;;;;;;;;4979931;28;20250;-80
2023/01/10 11:35:29;;;;;;;26.40;5.37;;;;;;;;;;4979438;28;20193;-83
2023/01/10 11:38:00;;;;;;;23.93;4.93;;;;;;;;;;4978955;28;20271;-83
2023/01/10 11:40:27;;;;;;;25.27;4.83;;;;;;;;;;4979377;28;20182;-83
2023/01/10 11:42:55;;;;;;;21.97;5.13;;;;;;;;;;4979220;28;20182;-83
2023/01/10 11:45:21;;;;;;;20.90;5.07;;;;;;;;;;4979506;28;20178;-83
2023/01/10 11:47:47;;;;;;;26.07;4.80;;;;;;;;;;4964699;28;20236;-83
2023/01/10 11:50:19;;;;;;;22.30;5.73;;;;;;;;;;4960125;28;20183;-79
2023/01/10 11:52:45;;;;;;;23.80;4.60;;;;;;;;;;4971624;28;20192;-79
2023/01/10 11:55:18;;;;;;;22.23;5.17;;;;;;;;;;4943841;28;20187;-79
2023/01/10 11:57:44;;;;;;;25.10;5.50;;;;;;;;;;4990394;28;20209;-79
2023/01/10 12:00:10;;;;;;;23.70;5.03;;;;;;;;;;4970910;28;20189;-79
2023/01/10 12:02:41;;;;;;;29.67;5.57;;;;;;;;;;4962732;28;20194;-78
2023/01/10 12:05:09;;;;;;;19.37;5.17;;;;;;;;;;4967737;28;20190;-78
2023/01/10 12:07:57;;;;;;;19.93;4.73;;;;;;;;;;4970326;28;20191;-83
2023/01/10 12:10:25;;;;;;;18.40;4.83;;;;;;;;;;4959597;28;20229;-83
2023/01/10 12:12:59;;;;;;;21.87;4.97;;;;;;;;;;4959729;28;20214;-83
2023/01/10 12:15:29;;;;;;;21.97;5.40;;;;;;;;;;4959852;28;20193;-83
2023/01/10 12:17:57;;;;;;;18.80;4.93;;;;;;;;;;4958971;28;20243;-83
2023/01/10 12:20:31;;;;;;;23.67;5.20;;;;;;;;;;4958994;28;20274;-83
2023/01/10 12:23:03;;;;;;;30.20;5.47;;;;;;;;;;4992883;28;20181;-79
2023/01/10 12:25:34;;;;;;;24.93;5.93;;;;;;;;;;4959156;28;20185;-79
2023/01/10 12:28:00;;;;;;;24.57;5.20;;;;;;;;;;4983153;28;20201;-78
2023/01/10 12:30:40;;;;;;;23.30;4.97;;;;;;;;;;4956469;28;20205;-79
2023/01/10 12:33:10;;;;;;;27.53;4.87;;;;;;;;;;4989031;28;20186;-78
2023/01/10 12:35:40;;;;;;;25.07;5.43;;;;;;;;;;4975923;28;20194;-79
2023/01/10 12:38:20;;;;;;;27.83;5.23;;;;;;;;;;4969021;28;20245;-78
2023/01/10 12:40:51;;;;;;;29.90;5.10;;;;;;;;;;4978362;28;20268;-81
2023/01/10 12:46:10;;;;;;;20.87;5.33;;;;;;;;;;4984178;28;20278;-81
2023/01/10 12:48:45;;;;;;;25.10;5.40;;;;;;;;;;4989491;28;20189;-81
2023/01/10 12:51:14;;;;;;;23.43;5.40;;;;;;;;;;4958921;28;20240;-81
2023/01/10 12:54:06;;;;;;;27.23;5.30;;;;;;;;;;4959928;28;20221;-80
2023/01/10 12:56:32;;;;;;;24.90;5.57;;;;;;;;;;4971802;28;20203;-78
2023/01/10 12:59:05;;;;;;;26.00;5.87;;;;;;;;;;4969681;28;20308;-78
2023/01/10 13:01:33;;;;;;;18.70;5.30;;;;;;;;;;4968274;28;20182;-78
2023/01/10 13:04:05;;;;;;;26.63;5.70;;;;;;;;;;4958952;28;20194;-79
2023/01/10 13:06:33;;;;;;;20.73;5.30;;;;;;;;;;4965540;28;20209;-78
2023/01/10 13:09:00;;;;;;;20.53;5.97;;;;;;;;;;4963360;28;20186;-78
2023/01/10 13:11:29;;;;;;;22.50;6.20;;;;;;;;;;4971598;28;20269;-78
2023/01/10 13:13:58;;;;;;;24.93;5.20;;;;;;;;;;4969926;28;20185;-81
2023/01/10 13:16:40;;;;;;;20.17;4.90;;;;;;;;;;4958686;28;20190;-81
2023/01/10 13:19:13;;;;;;;17.53;4.23;;;;;;;;;;4958556;28;20216;-81
2023/01/10 13:21:40;;;;;;;17.83;4.97;;;;;;;;;;4969137;28;20261;-81
2023/01/10 13:24:16;;;;;;;26.83;5.47;;;;;;;;;;4974808;28;20185;-81
2023/01/10 13:26:48;;;;;;;19.33;5.07;;;;;;;;;;4994542;28;20170;-81
2023/01/10 13:29:17;;;;;;;22.57;4.90;;;;;;;;;;4962558;28;20277;-81
2023/01/10 13:31:43;;;;;;;17.97;4.70;;;;;;;;;;4975736;28;20185;-79
2023/01/10 13:34:11;;;;;;;24.30;5.03;;;;;;;;;;4961898;28;20225;-78
2023/01/10 13:36:39;;;;;;;22.17;4.83;;;;;;;;;;4972044;28;20197;-78
2023/01/10 13:39:10;;;;;;;19.70;4.97;;;;;;;;;;4958307;28;20210;-79
2023/01/10 13:44:59;;;;;;;23.07;5.13;;;;;;;;;;4982905;28;20189;-79
2023/01/10 13:47:43;;;;;;;18.07;5.47;;;;;;;;;;4962214;28;20222;-79
2023/01/10 13:50:24;;;;;;;24.07;5.70;;;;;;;;;;4958064;28;20193;-79
2023/01/10 13:52:59;;;;;;;19.10;4.87;;;;;;;;;;4964075;28;20201;-79
2023/01/10 13:55:28;;;;;;;26.10;5.67;;;;;;;;;;4968675;28;20281;-79
2023/01/10 13:58:15;;;;;;;24.03;5.00;;;;;;;;;;4973610;28;20209;-78
2023/01/10 14:03:38;;;;;;;18.40;5.33;;;;;;;;;;4994767;28;20248;-79
2023/01/10 14:06:09;;;;;;;24.73;5.57;;;;;;;;;;4971832;28;20209;-78
2023/01/10 14:08:35;;;;;;;27.00;5.70;;;;;;;;;;4964674;28;20245;-78
2023/01/10 14:11:09;;;;;;;28.93;5.27;;;;;;;;;;4956207;28;20203;-78
2023/01/10 14:13:35;;;;;;;22.27;5.50;;;;;;;;;;4979764;28;20205;-79
2023/01/10 14:16:01;;;;;;;22.17;5.40;;;;;;;;;;4968746;28;20186;-79
2023/01/10 14:18:30;;;;;;;22.73;6.10;;;;;;;;;;4987610;28;20216;-78
2023/01/10 14:21:00;;;;;;;18.30;4.33;;;;;;;;;;4965637;28;20235;-80
2023/01/10 14:23:29;;;;;;;17.97;5.50;;;;;;;;;;4975621;28;20270;-82
2023/01/10 14:25:57;;;;;;;20.13;5.30;;;;;;;;;;4976650;28;20217;-81
2023/01/10 14:28:23;;;;;;;20.43;5.03;;;;;;;;;;4972911;28;20269;-81
2023/01/10 14:31:12;;;;;;;20.13;5.23;;;;;;;;;;4983376;28;20242;-81
2023/01/10 14:33:41;;;;;;;24.47;5.20;;;;;;;;;;4961125;28;20285;-81
2023/01/10 14:36:09;;;;;;;22.73;5.20;;;;;;;;;;4975019;28;20189;-81
2023/01/10 14:38:37;;;;;;;25.03;5.73;;;;;;;;;;4970022;28;20319;-81
2023/01/10 14:41:05;;;;;;;23.73;4.87;;;;;;;;;;4961408;28;20193;-81
2023/01/10 14:43:38;;;;;;;21.83;5.10;;;;;;;;;;4963023;28;20182;-80
2023/01/10 14:46:08;;;;;;;19.53;4.60;;;;;;;;;;4965546;28;20197;-81
2023/01/10 14:48:35;;;;;;;19.03;5.10;;;;;;;;;;4985110;28;20230;-81
2023/01/10 14:51:09;;;;;;;18.87;5.00;;;;;;;;;;4974388;28;20187;-81
2023/01/10 14:53:35;;;;;;;19.80;5.00;;;;;;;;;;4960706;28;20186;-78
2023/01/10 14:56:01;;;;;;;24.67;5.70;;;;;;;;;;4970408;28;20301;-79
2023/01/10 14:58:27;;;;;;;20.43;4.80;;;;;;;;;;4974114;28;20206;-79
2023/01/10 15:00:54;;;;;;;18.60;4.53;;;;;;;;;;4960807;28;20264;-78